sensor_id;sensor_type;location;lat;lon;timestamp;pressure;altitude;pressure_sealevel;temperature
20848;BMP180;10584;50.854;12.902;2022-12-18T00:01:58;99383.00;;;-10.80
20848;BMP180;10584;50.854;12.902;2022-12-18T00:07:02;99374.00;;;-10.90
20848;BMP180;10584;50.854;12.902;2022-12-18T00:12:06;99384.00;;;-11.00
20848;BMP180;10584;50.854;12.902;2022-12-18T00:17:17;99379.00;;;-11.10
20848;BMP180;10584;50.854;12.902;2022-12-18T00:22:20;99380.00;;;-11.10
20848;BMP180;10584;50.854;12.902;2022-12-18T00:27:23;99385.00;;;-11.10
20848;BMP180;10584;50.854;12.902;2022-12-18T00:32:26;99384.00;;;-11.20
20848;BMP180;10584;50.854;12.902;2022-12-18T00:37:30;99399.00;;;-11.20
20848;BMP180;10584;50.854;12.902;2022-12-18T00:42:33;99395.00;;;-11.20
20848;BMP180;10584;50.854;12.902;2022-12-18T00:47:55;99391.00;;;-11.30
20848;BMP180;10584;50.854;12.902;2022-12-18T00:52:58;99408.00;;;-11.30
20848;BMP180;10584;50.854;12.902;2022-12-18T00:58:01;99409.00;;;-11.40
20848;BMP180;10584;50.854;12.902;2022-12-18T01:03:04;99410.00;;;-11.50
20848;BMP180;10584;50.854;12.902;2022-12-18T01:08:08;99405.00;;;-11.50
20848;BMP180;10584;50.854;12.902;2022-12-18T01:13:11;99397.00;;;-11.60
20848;BMP180;10584;50.854;12.902;2022-12-18T01:18:14;99386.00;;;-11.60
20848;BMP180;10584;50.854;12.902;2022-12-18T01:23:17;99422.00;;;-11.70
20848;BMP180;10584;50.854;12.902;2022-12-18T01:28:20;99414.00;;;-11.80
20848;BMP180;10584;50.854;12.902;2022-12-18T01:33:23;99417.00;;;-11.80
20848;BMP180;10584;50.854;12.902;2022-12-18T01:38:28;99406.00;;;-11.80
20848;BMP180;10584;50.854;12.902;2022-12-18T01:48:59;99437.00;;;-11.90
20848;BMP180;10584;50.854;12.902;2022-12-18T01:54:03;99427.00;;;-12.00
20848;BMP180;10584;50.854;12.902;2022-12-18T01:59:07;99430.00;;;-12.10
20848;BMP180;10584;50.854;12.902;2022-12-18T02:04:38;99434.00;;;-12.10
20848;BMP180;10584;50.854;12.902;2022-12-18T02:10:34;99449.00;;;-12.20
20848;BMP180;10584;50.854;12.902;2022-12-18T02:15:26;99441.00;;;-12.20
20848;BMP180;10584;50.854;12.902;2022-12-18T02:21:00;99451.00;;;-12.30
20848;BMP180;10584;50.854;12.902;2022-12-18T02:31:36;99440.00;;;-12.40
20848;BMP180;10584;50.854;12.902;2022-12-18T02:36:43;99444.00;;;-12.40
20848;BMP180;10584;50.854;12.902;2022-12-18T02:41:48;99443.00;;;-12.50
20848;BMP180;10584;50.854;12.902;2022-12-18T02:46:53;99434.00;;;-12.40
20848;BMP180;10584;50.854;12.902;2022-12-18T02:57:39;99439.00;;;-12.50
20848;BMP180;10584;50.854;12.902;2022-12-18T03:03:59;99431.00;;;-12.60
20848;BMP180;10584;50.854;12.902;2022-12-18T03:08:44;99446.00;;;-12.60
20848;BMP180;10584;50.854;12.902;2022-12-18T03:13:53;99435.00;;;-12.60
20848;BMP180;10584;50.854;12.902;2022-12-18T03:19:02;99448.00;;;-12.60
20848;BMP180;10584;50.854;12.902;2022-12-18T03:24:09;99431.00;;;-12.60
20848;BMP180;10584;50.854;12.902;2022-12-18T03:29:40;99448.00;;;-12.60
20848;BMP180;10584;50.854;12.902;2022-12-18T03:34:42;99447.00;;;-12.70
20848;BMP180;10584;50.854;12.902;2022-12-18T03:39:49;99455.00;;;-12.70
20848;BMP180;10584;50.854;12.902;2022-12-18T03:50:27;99453.00;;;-12.70
20848;BMP180;10584;50.854;12.902;2022-12-18T03:55:37;99446.00;;;-12.80
20848;BMP180;10584;50.854;12.902;2022-12-18T04:00:42;99457.00;;;-12.70
20848;BMP180;10584;50.854;12.902;2022-12-18T04:05:48;99458.00;;;-12.80
20848;BMP180;10584;50.854;12.902;2022-12-18T04:10:56;99456.00;;;-12.80
20848;BMP180;10584;50.854;12.902;2022-12-18T04:16:00;99456.00;;;-12.90
20848;BMP180;10584;50.854;12.902;2022-12-18T04:21:04;99449.00;;;-12.90
20848;BMP180;10584;50.854;12.902;2022-12-18T04:26:08;99465.00;;;-12.80
20848;BMP180;10584;50.854;12.902;2022-12-18T04:31:21;99472.00;;;-12.80
20848;BMP180;10584;50.854;12.902;2022-12-18T04:36:25;99468.00;;;-12.90
20848;BMP180;10584;50.854;12.902;2022-12-18T04:41:28;99476.00;;;-12.90
20848;BMP180;10584;50.854;12.902;2022-12-18T04:46:33;99464.00;;;-13.00
20848;BMP180;10584;50.854;12.902;2022-12-18T04:51:39;99457.00;;;-12.90
20848;BMP180;10584;50.854;12.902;2022-12-18T04:56:42;99460.00;;;-13.00
20848;BMP180;10584;50.854;12.902;2022-12-18T05:01:45;99474.00;;;-13.10
20848;BMP180;10584;50.854;12.902;2022-12-18T05:06:49;99468.00;;;-13.10
20848;BMP180;10584;50.854;12.902;2022-12-18T05:11:52;99449.00;;;-13.10
20848;BMP180;10584;50.854;12.902;2022-12-18T05:16:55;99469.00;;;-13.20
20848;BMP180;10584;50.854;12.902;2022-12-18T05:22:04;99471.00;;;-13.30
20848;BMP180;10584;50.854;12.902;2022-12-18T05:27:10;99481.00;;;-13.20
20848;BMP180;10584;50.854;12.902;2022-12-18T05:32:13;99472.00;;;-13.30
20848;BMP180;10584;50.854;12.902;2022-12-18T05:37:16;99467.00;;;-13.30
20848;BMP180;10584;50.854;12.902;2022-12-18T05:42:19;99479.00;;;-13.40
20848;BMP180;10584;50.854;12.902;2022-12-18T05:47:23;99476.00;;;-13.50
20848;BMP180;10584;50.854;12.902;2022-12-18T05:52:26;99477.00;;;-13.50
20848;BMP180;10584;50.854;12.902;2022-12-18T05:57:29;99468.00;;;-13.60
20848;BMP180;10584;50.854;12.902;2022-12-18T06:02:32;99492.00;;;-13.60
20848;BMP180;10584;50.854;12.902;2022-12-18T06:07:35;99492.00;;;-13.60
20848;BMP180;10584;50.854;12.902;2022-12-18T06:12:40;99512.00;;;-13.60
20848;BMP180;10584;50.854;12.902;2022-12-18T06:17:43;99520.00;;;-13.70
20848;BMP180;10584;50.854;12.902;2022-12-18T06:22:48;99512.00;;;-13.70
20848;BMP180;10584;50.854;12.902;2022-12-18T06:27:51;99519.00;;;-13.80
20848;BMP180;10584;50.854;12.902;2022-12-18T06:32:54;99512.00;;;-13.80
20848;BMP180;10584;50.854;12.902;2022-12-18T06:37:58;99506.00;;;-13.90
20848;BMP180;10584;50.854;12.902;2022-12-18T06:43:03;99531.00;;;-13.90
20848;BMP180;10584;50.854;12.902;2022-12-18T06:48:06;99530.00;;;-13.90
20848;BMP180;10584;50.854;12.902;2022-12-18T06:53:09;99530.00;;;-13.90
20848;BMP180;10584;50.854;12.902;2022-12-18T06:58:12;99528.00;;;-14.00
20848;BMP180;10584;50.854;12.902;2022-12-18T07:03:15;99529.00;;;-14.00
20848;BMP180;10584;50.854;12.902;2022-12-18T07:08:19;99529.00;;;-13.90
20848;BMP180;10584;50.854;12.902;2022-12-18T07:13:22;99517.00;;;-13.90
20848;BMP180;10584;50.854;12.902;2022-12-18T07:18:25;99518.00;;;-14.00
20848;BMP180;10584;50.854;12.902;2022-12-18T07:23:28;99521.00;;;-14.00
20848;BMP180;10584;50.854;12.902;2022-12-18T07:28:32;99540.00;;;-14.00
20848;BMP180;10584;50.854;12.902;2022-12-18T07:33:35;99532.00;;;-14.00
20848;BMP180;10584;50.854;12.902;2022-12-18T07:38:39;99528.00;;;-14.10
20848;BMP180;10584;50.854;12.902;2022-12-18T07:43:42;99544.00;;;-14.10
20848;BMP180;10584;50.854;12.902;2022-12-18T07:48:46;99541.00;;;-14.00
20848;BMP180;10584;50.854;12.902;2022-12-18T07:53:51;99533.00;;;-14.00
20848;BMP180;10584;50.854;12.902;2022-12-18T07:58:55;99539.00;;;-14.00
20848;BMP180;10584;50.854;12.902;2022-12-18T08:03:58;99562.00;;;-13.90
20848;BMP180;10584;50.854;12.902;2022-12-18T08:09:02;99538.00;;;-13.90
20848;BMP180;10584;50.854;12.902;2022-12-18T08:14:05;99539.00;;;-13.80
20848;BMP180;10584;50.854;12.902;2022-12-18T08:19:08;99538.00;;;-13.80
20848;BMP180;10584;50.854;12.902;2022-12-18T08:24:11;99546.00;;;-13.70
20848;BMP180;10584;50.854;12.902;2022-12-18T08:29:14;99563.00;;;-13.50
20848;BMP180;10584;50.854;12.902;2022-12-18T08:34:23;99565.00;;;-13.50
20848;BMP180;10584;50.854;12.902;2022-12-18T08:39:26;99561.00;;;-13.30
20848;BMP180;10584;50.854;12.902;2022-12-18T08:44:29;99554.00;;;-13.10
20848;BMP180;10584;50.854;12.902;2022-12-18T08:49:41;99547.00;;;-12.90
20848;BMP180;10584;50.854;12.902;2022-12-18T08:54:44;99560.00;;;-12.70
20848;BMP180;10584;50.854;12.902;2022-12-18T08:59:47;99555.00;;;-12.30
20848;BMP180;10584;50.854;12.902;2022-12-18T09:04:51;99551.00;;;-11.70
20848;BMP180;10584;50.854;12.902;2022-12-18T09:09:59;99547.00;;;-11.00
20848;BMP180;10584;50.854;12.902;2022-12-18T09:15:02;99543.00;;;-10.60
20848;BMP180;10584;50.854;12.902;2022-12-18T09:20:05;99566.00;;;-9.80
20848;BMP180;10584;50.854;12.902;2022-12-18T09:25:11;99555.00;;;-9.40
20848;BMP180;10584;50.854;12.902;2022-12-18T09:30:14;99572.00;;;-8.80
20848;BMP180;10584;50.854;12.902;2022-12-18T09:35:17;99572.00;;;-8.30
20848;BMP180;10584;50.854;12.902;2022-12-18T09:40:25;99561.00;;;-7.70
20848;BMP180;10584;50.854;12.902;2022-12-18T09:45:30;99544.00;;;-7.30
20848;BMP180;10584;50.854;12.902;2022-12-18T09:50:38;99530.00;;;-6.80
20848;BMP180;10584;50.854;12.902;2022-12-18T09:55:45;99527.00;;;-6.30
20848;BMP180;10584;50.854;12.902;2022-12-18T10:00:55;99513.00;;;-5.80
20848;BMP180;10584;50.854;12.902;2022-12-18T10:06:54;99514.00;;;-5.50
20848;BMP180;10584;50.854;12.902;2022-12-18T10:22:39;99489.00;;;-3.90
20848;BMP180;10584;50.854;12.902;2022-12-18T10:27:45;99468.00;;;-3.40
20848;BMP180;10584;50.854;12.902;2022-12-18T10:32:49;99465.00;;;-3.00
20848;BMP180;10584;50.854;12.902;2022-12-18T10:43:45;99460.00;;;-2.40
20848;BMP180;10584;50.854;12.902;2022-12-18T10:53:54;99456.00;;;-2.10
20848;BMP180;10584;50.854;12.902;2022-12-18T10:59:02;99464.00;;;-1.70
20848;BMP180;10584;50.854;12.902;2022-12-18T11:04:13;99448.00;;;-1.50
20848;BMP180;10584;50.854;12.902;2022-12-18T11:09:38;99438.00;;;-1.10
20848;BMP180;10584;50.854;12.902;2022-12-18T11:14:42;99431.00;;;-0.90
20848;BMP180;10584;50.854;12.902;2022-12-18T11:20:23;99426.00;;;-0.70
20848;BMP180;10584;50.854;12.902;2022-12-18T11:25:31;99430.00;;;-0.30
20848;BMP180;10584;50.854;12.902;2022-12-18T11:30:37;99443.00;;;0.00
20848;BMP180;10584;50.854;12.902;2022-12-18T11:41:01;99443.00;;;0.60
20848;BMP180;10584;50.854;12.902;2022-12-18T11:46:13;99458.00;;;0.50
20848;BMP180;10584;50.854;12.902;2022-12-18T11:51:37;99476.00;;;0.40
20848;BMP180;10584;50.854;12.902;2022-12-18T12:02:40;99474.00;;;0.50
20848;BMP180;10584;50.854;12.902;2022-12-18T12:25:21;99463.00;;;0.50
20848;BMP180;10584;50.854;12.902;2022-12-18T12:43:10;99464.00;;;0.50
20848;BMP180;10584;50.854;12.902;2022-12-18T12:53:49;99450.00;;;-0.20
20848;BMP180;10584;50.854;12.902;2022-12-18T13:10:42;99459.00;;;-1.40
20848;BMP180;10584;50.854;12.902;2022-12-18T13:21:40;99451.00;;;-1.70
20848;BMP180;10584;50.854;12.902;2022-12-18T13:39:24;99430.00;;;-2.00
20848;BMP180;10584;50.854;12.902;2022-12-18T13:44:40;99429.00;;;-1.90
20848;BMP180;10584;50.854;12.902;2022-12-18T13:49:44;99433.00;;;-1.80
20848;BMP180;10584;50.854;12.902;2022-12-18T13:54:54;99440.00;;;-2.10
20848;BMP180;10584;50.854;12.902;2022-12-18T14:00:14;99430.00;;;-2.00
20848;BMP180;10584;50.854;12.902;2022-12-18T14:11:27;99431.00;;;-2.20
20848;BMP180;10584;50.854;12.902;2022-12-18T14:16:40;99423.00;;;-2.30
20848;BMP180;10584;50.854;12.902;2022-12-18T14:22:26;99424.00;;;-2.60
20848;BMP180;10584;50.854;12.902;2022-12-18T14:33:30;99417.00;;;-2.70
20848;BMP180;10584;50.854;12.902;2022-12-18T14:38:52;99424.00;;;-2.80
20848;BMP180;10584;50.854;12.902;2022-12-18T14:44:07;99409.00;;;-2.80
20848;BMP180;10584;50.854;12.902;2022-12-18T14:49:29;99414.00;;;-3.00
20848;BMP180;10584;50.854;12.902;2022-12-18T14:54:34;99408.00;;;-3.10
20848;BMP180;10584;50.854;12.902;2022-12-18T14:59:40;99424.00;;;-3.00
20848;BMP180;10584;50.854;12.902;2022-12-18T15:10:33;99394.00;;;-3.30
20848;BMP180;10584;50.854;12.902;2022-12-18T15:20:54;99399.00;;;-3.50
20848;BMP180;10584;50.854;12.902;2022-12-18T15:26:15;99383.00;;;-3.50
20848;BMP180;10584;50.854;12.902;2022-12-18T15:31:39;99391.00;;;-3.60
20848;BMP180;10584;50.854;12.902;2022-12-18T15:37:10;99396.00;;;-3.50
20848;BMP180;10584;50.854;12.902;2022-12-18T15:42:32;99411.00;;;-3.60
20848;BMP180;10584;50.854;12.902;2022-12-18T15:48:23;99420.00;;;-3.70
20848;BMP180;10584;50.854;12.902;2022-12-18T15:53:33;99410.00;;;-3.70
20848;BMP180;10584;50.854;12.902;2022-12-18T15:58:55;99417.00;;;-3.80
20848;BMP180;10584;50.854;12.902;2022-12-18T16:04:20;99403.00;;;-3.70
20848;BMP180;10584;50.854;12.902;2022-12-18T16:09:33;99414.00;;;-3.80
20848;BMP180;10584;50.854;12.902;2022-12-18T16:14:36;99414.00;;;-3.70
20848;BMP180;10584;50.854;12.902;2022-12-18T16:19:39;99421.00;;;-3.70
20848;BMP180;10584;50.854;12.902;2022-12-18T16:24:43;99413.00;;;-3.90
20848;BMP180;10584;50.854;12.902;2022-12-18T16:29:46;99411.00;;;-3.90
20848;BMP180;10584;50.854;12.902;2022-12-18T16:34:49;99402.00;;;-3.90
20848;BMP180;10584;50.854;12.902;2022-12-18T16:39:54;99403.00;;;-3.90
20848;BMP180;10584;50.854;12.902;2022-12-18T16:44:58;99379.00;;;-4.00
20848;BMP180;10584;50.854;12.902;2022-12-18T16:50:08;99386.00;;;-4.00
20848;BMP180;10584;50.854;12.902;2022-12-18T16:55:11;99396.00;;;-4.00
20848;BMP180;10584;50.854;12.902;2022-12-18T17:00:15;99383.00;;;-4.10
20848;BMP180;10584;50.854;12.902;2022-12-18T17:05:20;99373.00;;;-4.00
20848;BMP180;10584;50.854;12.902;2022-12-18T17:10:38;99370.00;;;-4.00
20848;BMP180;10584;50.854;12.902;2022-12-18T17:15:59;99387.00;;;-4.00
20848;BMP180;10584;50.854;12.902;2022-12-18T17:21:33;99364.00;;;-3.90
20848;BMP180;10584;50.854;12.902;2022-12-18T17:26:56;99357.00;;;-3.90
20848;BMP180;10584;50.854;12.902;2022-12-18T17:32:13;99345.00;;;-3.80
20848;BMP180;10584;50.854;12.902;2022-12-18T17:37:33;99343.00;;;-3.80
20848;BMP180;10584;50.854;12.902;2022-12-18T17:42:52;99342.00;;;-3.80
20848;BMP180;10584;50.854;12.902;2022-12-18T17:47:58;99323.00;;;-3.80
20848;BMP180;10584;50.854;12.902;2022-12-18T17:53:20;99310.00;;;-3.70
20848;BMP180;10584;50.854;12.902;2022-12-18T17:58:30;99322.00;;;-3.60
20848;BMP180;10584;50.854;12.902;2022-12-18T18:03:39;99306.00;;;-3.60
20848;BMP180;10584;50.854;12.902;2022-12-18T18:08:58;99313.00;;;-3.40
20848;BMP180;10584;50.854;12.902;2022-12-18T18:14:03;99299.00;;;-3.30
20848;BMP180;10584;50.854;12.902;2022-12-18T18:19:15;99289.00;;;-3.30
20848;BMP180;10584;50.854;12.902;2022-12-18T18:24:21;99287.00;;;-3.20
20848;BMP180;10584;50.854;12.902;2022-12-18T18:29:29;99285.00;;;-3.00
20848;BMP180;10584;50.854;12.902;2022-12-18T18:34:32;99278.00;;;-2.80
20848;BMP180;10584;50.854;12.902;2022-12-18T18:39:36;99272.00;;;-2.80
20848;BMP180;10584;50.854;12.902;2022-12-18T18:44:39;99280.00;;;-2.70
20848;BMP180;10584;50.854;12.902;2022-12-18T18:49:50;99290.00;;;-2.50
20848;BMP180;10584;50.854;12.902;2022-12-18T18:54:53;99271.00;;;-2.50
20848;BMP180;10584;50.854;12.902;2022-12-18T19:00:15;99272.00;;;-2.40
20848;BMP180;10584;50.854;12.902;2022-12-18T19:05:21;99264.00;;;-2.40
20848;BMP180;10584;50.854;12.902;2022-12-18T19:10:39;99255.00;;;-2.30
20848;BMP180;10584;50.854;12.902;2022-12-18T19:15:43;99241.00;;;-2.20
20848;BMP180;10584;50.854;12.902;2022-12-18T19:21:07;99238.00;;;-2.10
20848;BMP180;10584;50.854;12.902;2022-12-18T19:26:39;99238.00;;;-2.00
20848;BMP180;10584;50.854;12.902;2022-12-18T19:32:08;99240.00;;;-2.00
20848;BMP180;10584;50.854;12.902;2022-12-18T19:37:21;99210.00;;;-2.00
20848;BMP180;10584;50.854;12.902;2022-12-18T19:42:40;99212.00;;;-1.90
20848;BMP180;10584;50.854;12.902;2022-12-18T19:47:58;99198.00;;;-1.90
20848;BMP180;10584;50.854;12.902;2022-12-18T19:53:10;99196.00;;;-1.70
20848;BMP180;10584;50.854;12.902;2022-12-18T19:58:25;99201.00;;;-1.70
20848;BMP180;10584;50.854;12.902;2022-12-18T20:03:49;99200.00;;;-1.50
20848;BMP180;10584;50.854;12.902;2022-12-18T20:09:27;99197.00;;;-1.40
20848;BMP180;10584;50.854;12.902;2022-12-18T20:15:04;99203.00;;;-1.30
20848;BMP180;10584;50.854;12.902;2022-12-18T20:20:20;99187.00;;;-1.20
20848;BMP180;10584;50.854;12.902;2022-12-18T20:25:24;99185.00;;;-1.10
20848;BMP180;10584;50.854;12.902;2022-12-18T20:30:28;99196.00;;;-1.20
20848;BMP180;10584;50.854;12.902;2022-12-18T20:35:32;99212.00;;;-1.00
20848;BMP180;10584;50.854;12.902;2022-12-18T20:40:36;99188.00;;;-1.10
20848;BMP180;10584;50.854;12.902;2022-12-18T20:45:42;99172.00;;;-1.00
20848;BMP180;10584;50.854;12.902;2022-12-18T20:51:15;99172.00;;;-0.90
20848;BMP180;10584;50.854;12.902;2022-12-18T20:56:32;99177.00;;;-0.90
20848;BMP180;10584;50.854;12.902;2022-12-18T21:02:05;99185.00;;;-1.10
20848;BMP180;10584;50.854;12.902;2022-12-18T21:07:22;99184.00;;;-0.90
20848;BMP180;10584;50.854;12.902;2022-12-18T21:12:36;99188.00;;;-0.80
20848;BMP180;10584;50.854;12.902;2022-12-18T21:18:12;99192.00;;;-0.70
20848;BMP180;10584;50.854;12.902;2022-12-18T21:23:27;99191.00;;;-0.60
20848;BMP180;10584;50.854;12.902;2022-12-18T21:28:43;99195.00;;;-0.50
20848;BMP180;10584;50.854;12.902;2022-12-18T21:34:00;99193.00;;;-0.50
20848;BMP180;10584;50.854;12.902;2022-12-18T21:39:12;99170.00;;;-0.60
20848;BMP180;10584;50.854;12.902;2022-12-18T21:44:22;99157.00;;;-0.50
20848;BMP180;10584;50.854;12.902;2022-12-18T21:49:26;99162.00;;;-0.40
20848;BMP180;10584;50.854;12.902;2022-12-18T21:54:29;99150.00;;;-0.40
20848;BMP180;10584;50.854;12.902;2022-12-18T21:59:35;99139.00;;;-0.30
20848;BMP180;10584;50.854;12.902;2022-12-18T22:04:43;99149.00;;;-0.30
20848;BMP180;10584;50.854;12.902;2022-12-18T22:09:56;99148.00;;;-0.20
20848;BMP180;10584;50.854;12.902;2022-12-18T22:15:02;99137.00;;;-0.30
20848;BMP180;10584;50.854;12.902;2022-12-18T22:20:06;99124.00;;;-0.20
20848;BMP180;10584;50.854;12.902;2022-12-18T22:25:11;99133.00;;;-0.10
20848;BMP180;10584;50.854;12.902;2022-12-18T22:30:14;99105.00;;;-0.30
20848;BMP180;10584;50.854;12.902;2022-12-18T22:35:17;99109.00;;;-0.30
20848;BMP180;10584;50.854;12.902;2022-12-18T22:40:22;99102.00;;;-0.30
20848;BMP180;10584;50.854;12.902;2022-12-18T22:45:28;99106.00;;;-0.30
20848;BMP180;10584;50.854;12.902;2022-12-18T22:50:31;99089.00;;;-0.40
20848;BMP180;10584;50.854;12.902;2022-12-18T22:55:35;99082.00;;;-0.30
20848;BMP180;10584;50.854;12.902;2022-12-18T23:00:39;99076.00;;;-0.30
20848;BMP180;10584;50.854;12.902;2022-12-18T23:06:00;99073.00;;;-0.30
20848;BMP180;10584;50.854;12.902;2022-12-18T23:11:20;99060.00;;;-0.30
20848;BMP180;10584;50.854;12.902;2022-12-18T23:16:34;99069.00;;;-0.30
20848;BMP180;10584;50.854;12.902;2022-12-18T23:22:00;99040.00;;;-0.30
20848;BMP180;10584;50.854;12.902;2022-12-18T23:27:20;99042.00;;;-0.20
20848;BMP180;10584;50.854;12.902;2022-12-18T23:32:45;99049.00;;;-0.20
20848;BMP180;10584;50.854;12.902;2022-12-18T23:38:10;99038.00;;;-0.40
20848;BMP180;10584;50.854;12.902;2022-12-18T23:43:42;99034.00;;;-0.30
20848;BMP180;10584;50.854;12.902;2022-12-18T23:48:53;99042.00;;;-0.30
20848;BMP180;10584;50.854;12.902;2022-12-18T23:54:04;99029.00;;;-0.30
20848;BMP180;10584;50.854;12.902;2022-12-18T23:59:14;99038.00;;;-0.60
